関東平野をガッツリ!!!

LUXURY FLIGHT

03-6423-7371

羽田本店:東京都大田区羽田5-11-1
営業時間:10:00~20:00
定休日:毎週 月曜日
セントレア店:愛知県常滑市セントレア1-1
営業時間:10:00~20:00 年中無休

lv

関東平野をガッツリ!!!

STAFF BLOG

2019/09/15 関東平野をガッツリ!!!

こんにちはーーーーーー

 

秋の訪れを確信した羽田周辺の今日のMETARは…

 

RJTT 150530Z 06011KT 9999 FEW025 BKN050 28/22 Q1007

BECMG 03014KT RMK 1CU025 7SC050 A2975

 

さてさて、今回は羽田〜羽田、関東平野をグルっと爆走の旅にをお届けさせていただきたく!!!

 

軽井沢周辺にお住まいという事で、北は群馬、南は千葉の房総半島とまでをグルっと一回り。

 

img_2927

 

しっかり景色を楽しんでいただきたいという思いと、

時間内に間に合わせなきゃ、というジレンマも重なり、

ひとまず、群馬県方面へ15,000フィート前後で飛ぶことにしましたーーー

 

せっかく普段住み慣れた街を、空から見下ろせるチャンス!!

計器だけで飛ぶのは勿体無いので、

眼下に見える関越自動車道を頼りに、北へ北へと飛んでいきます

 

 

img_2931

 

これくらい高度を上げてしまうと、

高速道路を探すのもひと苦労

 

私を含めた3人のクルー全員が必死に地上を追い続けます!!

途中、わからなくなりそうな場合はグーグルアースも見比べながら頑張りました

 

その間、誰も計器を見てスピードのチェックをしなかったので

オーバースピードのアラートが鳴ったのはご愛嬌ということで

 

 

そんなこんなで、無事に着陸した瞬間の安堵感は、ハンパないものとなりました

いつも以上に一体感も感じられた楽しいフライトをありがとうございます

 

 

この度はご来店誠にありがとうございました!!

 

またのご来店も心よりお待ち致しております。

 

「感謝」

TOP